Macon, North Carolina
Current Conditions -  °F | °C
As of 4:56 AM on Monday 22 Dec 2014 (Local Time) from KAVC Reporting Station
Overcast Overcast  
Wind Chill: 29°   Ceiling: 4000
Heat Index: 34°   Visibility: 7mi
Dew Point: 32°   Wind: 6mph
Humidity: 91%   Direction: 20°NNE
Pressure: 30.23"   Gusts: NA
Location:  36.44°N, 78.08°W
Report Text: KAVC 220956Z AUTO 02005KT 7SM OVC040 01/00 A3023 RMK AO2 T00121001
Loading
Personal Weather Stations






























Interactive Weather Map New forecast layout! Learn more

10-Day Weather Forecast

Advertisements
Track Severe Weather on mobile